Time;durP1;ratioP1;P1;durP2;ratioP2;P2;SDS_P1;SDS_P2;PMS_P1;PMS_P2;Temp;Humidity;BMP_temperature;BMP_pressure;BME280_temperature;BME280_humidity;BME280_pressure;Samples;Min_cycle;Max_cycle;Signal;HPM_P1;HPM_P2
2022/12/04 00:00:20;;;;;;;25.02;15.23;;;;;;;6.34;73.43;95528.78;4164837;28;20132;-50
2022/12/04 00:02:22;;;;;;;25.38;15.10;;;;;;;6.33;73.19;95524.56;4166985;28;20140;-52
2022/12/04 00:04:24;;;;;;;24.13;15.38;;;;;;;6.27;73.52;95522.41;4160924;28;20057;-51
2022/12/04 00:06:26;;;;;;;22.65;14.43;;;;;;;6.18;73.93;95522.25;4159650;28;20121;-49
2022/12/04 00:08:28;;;;;;;26.77;15.93;;;;;;;6.15;73.76;95538.88;4160676;28;20056;-50
2022/12/04 00:10:30;;;;;;;26.27;15.40;;;;;;;6.14;74.48;95535.47;4160692;28;20053;-51
2022/12/04 00:12:33;;;;;;;27.13;16.35;;;;;;;6.15;73.97;95524.13;4157762;28;20533;-49
2022/12/04 00:14:35;;;;;;;29.77;17.40;;;;;;;6.16;74.58;95532.75;4160033;28;20054;-50
2022/12/04 00:16:56;;;;;;;27.65;16.25;;;;;;;6.19;74.40;95540.31;4159997;28;20067;-52
2022/12/04 00:18:58;;;;;;;28.95;16.67;;;;;;;6.20;74.56;95541.19;4160116;28;20512;-51
2022/12/04 00:21:03;;;;;;;26.08;16.92;;;;;;;6.20;74.40;95542.00;4149323;28;20506;-54
2022/12/04 00:23:06;;;;;;;28.23;16.65;;;;;;;6.19;74.49;95544.72;4149852;28;20057;-50
2022/12/04 00:25:08;;;;;;;26.92;16.98;;;;;;;6.21;74.45;95545.44;4147810;28;20530;-57
2022/12/04 00:27:09;;;;;;;27.42;16.65;;;;;;;6.21;74.22;95548.03;4147795;28;20053;-51
2022/12/04 00:29:11;;;;;;;26.23;15.95;;;;;;;6.21;73.94;95542.81;4146997;28;20061;-50
2022/12/04 00:31:16;;;;;;;31.20;16.60;;;;;;;6.24;74.62;95540.84;4149648;28;20044;-51
2022/12/04 00:33:17;;;;;;;25.85;16.63;;;;;;;6.26;74.62;95532.91;4147366;28;20135;-50
2022/12/04 00:35:19;;;;;;;26.75;16.13;;;;;;;6.22;74.05;95549.72;4147877;28;20187;-53
2022/12/04 00:37:21;;;;;;;27.45;15.90;;;;;;;6.20;74.11;95546.38;4148149;28;20045;-49
2022/12/04 00:39:23;;;;;;;28.40;16.33;;;;;;;6.19;73.89;95549.91;4147104;28;20055;-49
2022/12/04 00:41:26;;;;;;;27.67;15.57;;;;;;;6.17;73.86;95550.03;4153553;28;20470;-51
2022/12/04 00:43:28;;;;;;;23.63;14.45;;;;;;;6.14;74.04;95545.88;4147511;28;20140;-51
2022/12/04 00:45:30;;;;;;;22.23;14.07;;;;;;;6.12;73.94;95542.56;4144376;28;20081;-51
2022/12/04 00:47:31;;;;;;;23.48;15.63;;;;;;;6.09;74.09;95540.19;4144602;28;20049;-51
2022/12/04 00:49:33;;;;;;;26.75;16.00;;;;;;;6.13;73.78;95548.56;4145111;28;20054;-54
2022/12/04 00:51:35;;;;;;;23.90;14.90;;;;;;;6.13;74.17;95545.97;4144835;28;20069;-51
2022/12/04 00:53:37;;;;;;;25.20;15.57;;;;;;;6.14;74.18;95542.44;4157789;28;20050;-53
2022/12/04 00:55:40;;;;;;;22.63;14.50;;;;;;;6.16;74.23;95553.56;4150481;28;20056;-51
2022/12/04 00:57:42;;;;;;;27.10;15.98;;;;;;;6.12;73.94;95552.13;4155547;28;20395;-51
2022/12/04 00:59:44;;;;;;;24.48;15.38;;;;;;;6.14;73.83;95548.47;4157529;28;20133;-51
2022/12/04 01:01:45;;;;;;;27.30;15.10;;;;;;;6.14;74.13;95548.47;4160589;28;20049;-52
2022/12/04 01:03:47;;;;;;;29.73;15.82;;;;;;;6.11;73.62;95543.50;4161682;28;20477;-53
2022/12/04 01:05:49;;;;;;;31.83;16.67;;;;;;;6.12;73.94;95547.75;4166179;28;20423;-50
2022/12/04 01:07:52;;;;;;;28.30;16.15;;;;;;;6.13;74.06;95535.56;4155399;28;20045;-51
2022/12/04 01:09:54;;;;;;;27.52;16.35;;;;;;;6.14;73.67;95545.03;4156815;28;20068;-55
2022/12/04 01:11:56;;;;;;;23.65;15.13;;;;;;;6.12;73.94;95545.16;4160434;28;20072;-54
2022/12/04 01:13:58;;;;;;;24.23;15.65;;;;;;;6.14;73.51;95543.28;4156746;28;20097;-52
2022/12/04 01:16:00;;;;;;;27.77;15.02;;;;;;;6.13;73.69;95545.97;4158804;28;20181;-53
2022/12/04 01:18:02;;;;;;;26.30;15.45;;;;;;;6.14;73.69;95545.88;4154681;28;20117;-54
2022/12/04 01:20:04;;;;;;;26.90;16.75;;;;;;;6.13;73.38;95539.03;4156147;28;20434;-52
2022/12/04 01:22:06;;;;;;;27.65;15.30;;;;;;;6.10;73.97;95539.22;4158421;28;20049;-51
2022/12/04 01:24:07;;;;;;;24.05;14.90;;;;;;;6.08;73.74;95538.50;4157135;28;20473;-53
2022/12/04 01:26:10;;;;;;;24.35;15.25;;;;;;;6.06;74.17;95535.19;4157250;28;20099;-53
2022/12/04 01:28:12;;;;;;;26.35;17.08;;;;;;;5.95;74.34;95538.56;4157613;28;20053;-52
2022/12/04 01:30:14;;;;;;;26.75;16.88;;;;;;;5.91;74.42;95536.25;4149994;28;20156;-53
2022/12/04 01:32:15;;;;;;;26.23;16.08;;;;;;;5.94;74.28;95534.31;4160892;28;20513;-49
2022/12/04 01:34:17;;;;;;;28.58;15.27;;;;;;;5.93;73.91;95534.38;4159516;28;20049;-53
2022/12/04 01:36:21;;;;;;;27.40;16.20;;;;;;;5.93;74.06;95536.97;4157846;28;20092;-54
2022/12/04 01:38:24;;;;;;;26.65;16.50;;;;;;;5.97;74.37;95535.03;4153310;28;20554;-50
2022/12/04 01:40:26;;;;;;;26.90;15.93;;;;;;;5.99;74.15;95538.34;4154763;28;20475;-52
2022/12/04 01:42:27;;;;;;;25.88;16.42;;;;;;;5.98;74.19;95540.13;4153255;28;20057;-51
2022/12/04 01:44:30;;;;;;;29.25;16.83;;;;;;;5.97;74.47;95546.25;4147393;28;20081;-52
2022/12/04 01:46:32;;;;;;;26.40;16.25;;;;;;;5.98;74.66;95542.75;4143287;28;20046;-52
2022/12/04 01:48:43;;;;;;;26.15;16.13;;;;;;;5.99;74.55;95536.56;4150598;28;20065;-54
2022/12/04 01:50:48;;;;;;;27.00;16.48;;;;;;;5.99;74.70;95523.56;4142909;28;20054;-53
2022/12/04 01:52:50;;;;;;;28.05;17.63;;;;;;;5.98;74.28;95531.47;4158687;28;20493;-55
2022/12/04 01:54:58;;;;;;;28.10;16.75;;;;;;;5.96;74.53;95523.81;4148413;28;20054;-54
2022/12/04 01:57:08;;;;;;;27.48;16.77;;;;;;;6.00;74.61;95535.66;4143050;28;20118;-52
2022/12/04 01:59:12;;;;;;;27.88;16.58;;;;;;;6.01;74.43;95526.06;4143882;28;20073;-52
2022/12/04 02:01:13;;;;;;;28.15;15.63;;;;;;;6.00;73.94;95525.25;4152650;28;20057;-50
2022/12/04 02:03:15;;;;;;;25.90;15.90;;;;;;;6.00;73.83;95527.00;4157168;28;20454;-53
2022/12/04 02:05:19;;;;;;;26.35;16.15;;;;;;;5.99;73.88;95523.56;4157286;28;20415;-54
2022/12/04 02:07:21;;;;;;;25.63;15.90;;;;;;;6.00;74.09;95525.25;4144280;28;20332;-55
2022/12/04 02:09:23;;;;;;;26.48;16.25;;;;;;;6.03;74.34;95519.81;4144511;28;20108;-50
2022/12/04 02:11:40;;;;;;;27.83;18.70;;;;;;;6.04;74.56;95525.84;4144243;28;20475;-55
2022/12/04 02:14:00;;;;;;;;;;;;;;;6.02;74.35;95523.34;4143961;28;20112;-52
2022/12/04 02:16:25;;;;;;;31.45;18.98;;;;;;;6.03;74.83;95516.38;4145044;28;19940;-53
2022/12/04 02:18:34;;;;;;;42.78;25.88;;;;;;;6.03;74.72;95504.22;4146167;28;20045;-51
2022/12/04 02:21:00;;;;;;;31.35;21.90;;;;;;;6.00;74.47;95511.38;4145566;28;20060;-55
2022/12/04 02:23:37;;;;;;;40.10;27.83;;;;;;;5.99;74.49;95515.78;4150293;28;20049;-52
2022/12/04 02:26:03;;;;;;;35.35;23.55;;;;;;;5.99;74.72;95515.78;4160195;28;20550;-54
2022/12/04 02:28:17;;;;;;;39.42;27.60;;;;;;;6.00;74.75;95512.25;4158882;28;20042;-54
2022/12/04 02:30:19;;;;;;;41.88;27.05;;;;;;;6.03;74.38;95504.22;4146629;28;20056;-54
2022/12/04 02:32:38;;;;;;;40.70;28.30;;;;;;;6.02;74.33;95499.94;4146628;28;20155;-52
2022/12/04 02:35:02;;;;;;;36.92;24.42;;;;;;;5.99;74.02;95505.38;4160886;28;20057;-53
2022/12/04 02:37:20;;;;;;;33.17;21.63;;;;;;;5.95;74.11;95511.72;4160581;28;20049;-52
2022/12/04 02:39:29;;;;;;;35.60;21.80;;;;;;;5.95;74.12;95506.53;4146738;28;20070;-53
2022/12/04 02:41:39;;;;;;;35.53;21.73;;;;;;;5.97;74.72;95514.22;4155073;28;20103;-50
2022/12/04 02:44:08;;;;;;;33.75;21.80;;;;;;;5.96;74.27;95510.81;4162442;28;20099;-52
2022/12/04 02:46:16;;;;;;;37.83;23.40;;;;;;;5.92;73.99;95504.94;4144832;28;21147;-51
2022/12/04 02:48:19;;;;;;;32.40;20.50;;;;;;;5.92;74.43;95506.72;4155764;28;20046;-51
2022/12/04 02:50:22;;;;;;;30.05;18.00;;;;;;;5.91;74.59;95505.06;4171019;28;20198;-50
2022/12/04 02:52:36;;;;;;;31.48;19.92;;;;;;;5.92;74.14;95502.34;4148804;28;20120;-52
2022/12/04 02:54:45;;;;;;;32.25;18.95;;;;;;;5.93;74.13;95511.78;4153690;28;20054;-53
2022/12/04 02:56:48;;;;;;;30.17;19.35;;;;;;;5.92;74.70;95512.75;4166010;28;20444;-49
2022/12/04 02:59:28;;;;;;;31.80;17.58;;;;;;;5.92;74.54;95510.16;4160030;28;20061;-52
2022/12/04 03:01:34;;;;;;;29.08;19.90;;;;;;;5.93;74.22;95511.78;4151240;28;20113;-49
2022/12/04 03:03:36;;;;;;;29.52;18.60;;;;;;;5.90;74.13;95517.22;4144464;28;20177;-54
2022/12/04 03:05:48;;;;;;;26.85;18.42;;;;;;;5.88;74.49;95513.91;4146536;28;20058;-54
2022/12/04 03:07:58;;;;;;;25.65;16.65;;;;;;;5.87;74.36;95514.00;4158869;28;20347;-51
2022/12/04 03:10:05;;;;;;;27.98;15.93;;;;;;;5.88;74.75;95498.31;4169563;28;20053;-50
2022/12/04 03:12:19;;;;;;;27.23;16.45;;;;;;;5.89;74.92;95491.34;4147857;28;20050;-50
2022/12/04 03:14:28;;;;;;;29.03;17.17;;;;;;;5.92;74.77;95501.53;4149604;28;20057;-50
2022/12/04 03:16:38;;;;;;;32.63;18.00;;;;;;;5.91;74.77;95500.69;4160911;28;20278;-52
2022/12/04 03:18:43;;;;;;;27.67;17.45;;;;;;;5.93;74.57;95495.38;4149522;28;20071;-47
2022/12/04 03:20:47;;;;;;;28.48;17.25;;;;;;;5.97;74.59;95502.03;4146218;28;20107;-54
2022/12/04 03:22:57;;;;;;;24.20;15.52;;;;;;;5.92;73.86;95491.94;4144827;28;20145;-52
2022/12/04 03:24:59;;;;;;;31.55;17.38;;;;;;;5.93;74.27;95497.97;4149264;28;20064;-49
2022/12/04 03:27:21;;;;;;;25.15;16.40;;;;;;;5.92;74.49;95496.31;4161591;28;20136;-51
2022/12/04 03:29:31;;;;;;;25.17;16.13;;;;;;;5.93;74.62;95493.59;4153624;28;20507;-54
2022/12/04 03:31:44;;;;;;;26.75;15.75;;;;;;;5.98;74.75;95490.72;4159527;28;20466;-48
2022/12/04 03:33:46;;;;;;;29.17;15.70;;;;;;;5.99;74.23;95487.16;4165692;28;20128;-53
2022/12/04 03:35:55;;;;;;;25.88;16.05;;;;;;;5.98;74.42;95489.88;4171087;28;20522;-51
2022/12/04 03:38:04;;;;;;;27.63;16.08;;;;;;;5.98;74.54;95488.13;4156556;28;20119;-54
2022/12/04 03:40:22;;;;;;;22.90;14.45;;;;;;;5.98;74.64;95492.47;4148204;28;20053;-52
2022/12/04 03:42:35;;;;;;;24.10;15.35;;;;;;;5.97;74.11;95498.63;4147771;28;20154;-50
2022/12/04 03:45:03;;;;;;;22.63;14.57;;;;;;;5.93;74.13;95495.38;4159714;28;20091;-52
2022/12/04 03:47:18;;;;;;;27.13;16.27;;;;;;;5.93;74.53;95484.97;4160856;28;20486;-50
2022/12/04 03:50:06;;;;;;;26.35;15.48;;;;;;;5.91;74.14;95484.25;4160621;28;20107;-53
2022/12/04 03:52:26;;;;;;;26.77;16.20;;;;;;;5.87;74.20;95488.00;4149578;28;20054;-52
2022/12/04 03:54:43;;;;;;;23.08;14.70;;;;;;;5.88;74.53;95487.91;4160307;28;20092;-53
2022/12/04 03:56:52;;;;;;;23.63;14.52;;;;;;;5.89;74.30;95488.72;4159906;28;20453;-54
2022/12/04 03:58:59;;;;;;;24.50;15.75;;;;;;;5.85;74.34;95482.94;4159580;28;20079;-51
2022/12/04 04:01:02;;;;;;;24.67;15.40;;;;;;;5.81;74.76;95488.44;4159868;28;20053;-52
2022/12/04 04:03:15;;;;;;;25.15;16.00;;;;;;;5.72;74.99;95490.78;4166344;28;20136;-52
2022/12/04 04:05:17;;;;;;;25.30;15.57;;;;;;;5.66;75.38;95490.41;4161137;28;20191;-50
2022/12/04 04:07:25;;;;;;;27.27;16.60;;;;;;;5.64;75.74;95484.47;4160237;28;20088;-52
2022/12/04 04:09:38;;;;;;;24.77;15.38;;;;;;;5.67;75.67;95479.88;4160055;28;20140;-52
2022/12/04 04:11:48;;;;;;;26.90;17.02;;;;;;;5.69;75.44;95480.59;4150833;28;20121;-51
2022/12/04 04:25:41;;;;;;;22.60;12.05;;;;;;;5.70;75.14;95487.47;4160810;28;20077;-52
2022/12/04 04:27:50;;;;;;;15.15;10.07;;;;;;;5.64;75.37;95490.50;4157891;28;20045;-53
2022/12/04 04:29:52;;;;;;;20.70;11.77;;;;;;;5.56;75.91;95492.81;4160329;28;20508;-51
2022/12/04 04:32:13;;;;;;;17.98;10.38;;;;;;;5.54;75.88;95495.50;4158642;28;20053;-59
2022/12/04 04:34:23;;;;;;;13.57;9.48;;;;;;;5.53;75.86;95495.66;4158917;28;20061;-51
2022/12/04 04:36:40;;;;;;;19.77;10.85;;;;;;;5.53;75.78;95501.66;4158963;28;20057;-50
2022/12/04 04:38:45;;;;;;;14.95;8.95;;;;;;;5.56;76.07;95500.63;4149052;28;20053;-52
2022/12/04 04:40:59;;;;;;;12.77;8.32;;;;;;;5.54;76.09;95487.72;4172474;28;20429;-54
2022/12/04 04:43:00;;;;;;;;;;;;;;;5.53;76.90;95496.47;4160126;28;20091;-50
2022/12/04 04:45:19;;;;;;;14.55;9.20;;;;;;;5.60;76.46;95493.44;4160651;28;19932;-52
2022/12/04 04:47:46;;;;;;;19.85;11.07;;;;;;;5.64;75.96;95493.09;4158683;28;20052;-53
2022/12/04 04:49:49;;;;;;;15.73;9.55;;;;;;;5.69;75.92;95498.78;4161035;28;20065;-52
2022/12/04 04:51:52;;;;;;;22.55;11.07;;;;;;;5.72;75.63;95502.94;4174239;28;20064;-49
2022/12/04 04:53:56;;;;;;;20.45;13.68;;;;;;;5.70;74.87;95503.06;4166574;28;20050;-49
2022/12/04 04:55:58;;;;;;;19.52;13.57;;;;;;;5.67;75.49;95503.28;4143631;28;20080;-49
2022/12/04 04:58:08;;;;;;;25.67;13.32;;;;;;;5.63;74.99;95507.03;4157288;28;20068;-54
2022/12/04 05:00:16;;;;;;;23.05;12.80;;;;;;;5.64;75.66;95513.91;4157291;28;20060;-50
2022/12/04 05:02:18;;;;;;;22.60;13.82;;;;;;;5.66;75.58;95512.03;4145190;28;20054;-51
2022/12/04 05:04:20;;;;;;;21.42;14.10;;;;;;;5.69;75.39;95514.41;4152314;28;20072;-50
2022/12/04 05:06:21;;;;;;;20.35;12.48;;;;;;;5.73;74.97;95512.41;4150813;28;20061;-52
2022/12/04 05:08:23;;;;;;;20.42;11.85;;;;;;;5.74;75.42;95511.47;4146398;28;20088;-51
2022/12/04 05:10:25;;;;;;;18.85;11.88;;;;;;;5.75;75.11;95516.56;4149954;28;20148;-54
2022/12/04 05:12:26;;;;;;;19.35;12.00;;;;;;;5.79;74.71;95513.75;4145431;28;20123;-50
2022/12/04 05:14:28;;;;;;;18.00;12.13;;;;;;;5.78;75.17;95519.88;4144732;28;20050;-53
2022/12/04 05:16:31;;;;;;;19.58;12.02;;;;;;;5.81;74.69;95524.84;4145940;28;20119;-53
2022/12/04 05:18:34;;;;;;;16.80;12.13;;;;;;;5.81;74.89;95536.09;4145269;28;20038;-54
2022/12/04 05:20:39;;;;;;;20.10;12.45;;;;;;;5.80;74.60;95529.22;4146473;28;20050;-53
2022/12/04 05:22:41;;;;;;;20.35;12.40;;;;;;;5.82;74.61;95531.72;4146715;28;20061;-54
2022/12/04 05:24:43;;;;;;;18.10;11.80;;;;;;;5.83;74.53;95533.38;4148169;28;20409;-53
2022/12/04 05:26:44;;;;;;;19.90;11.45;;;;;;;5.82;74.52;95536.94;4146846;28;20125;-50
2022/12/04 05:28:46;;;;;;;19.25;11.80;;;;;;;5.81;74.76;95535.25;4145670;28;20085;-51
2022/12/04 05:31:00;;;;;;;17.67;11.95;;;;;;;5.76;74.93;95530.38;4147086;28;20115;-55
2022/12/04 05:33:02;;;;;;;18.08;12.05;;;;;;;5.76;74.93;95527.78;4146886;28;20144;-52
2022/12/04 05:35:04;;;;;;;16.73;11.63;;;;;;;5.79;74.93;95531.97;4153397;28;20053;-51
2022/12/04 05:37:11;;;;;;;20.73;11.95;;;;;;;5.77;75.33;95533.84;4150622;28;20076;-53
2022/12/04 05:39:13;;;;;;;16.70;11.27;;;;;;;5.77;75.15;95536.44;4150464;28;20137;-52
2022/12/04 05:41:15;;;;;;;15.55;11.23;;;;;;;5.75;74.62;95534.75;4160341;28;20072;-52
2022/12/04 05:43:16;;;;;;;17.25;11.48;;;;;;;5.75;74.99;95537.34;4159291;28;20127;-53
2022/12/04 05:45:18;;;;;;;20.08;12.15;;;;;;;5.75;74.55;95526.97;4146678;28;20099;-55
2022/12/04 05:47:20;;;;;;;17.33;11.70;;;;;;;5.77;74.59;95529.47;4158335;28;20058;-52
2022/12/04 05:49:22;;;;;;;17.27;11.45;;;;;;;5.81;74.95;95540.44;4160351;28;20053;-51
2022/12/04 05:51:23;;;;;;;17.38;11.07;;;;;;;5.79;75.17;95537.97;4160181;28;20056;-52
2022/12/04 05:53:25;;;;;;;17.48;12.07;;;;;;;5.79;74.63;95544.97;4159415;28;20057;-53
2022/12/04 05:55:27;;;;;;;17.65;12.13;;;;;;;5.79;74.96;95543.19;4161665;28;20061;-54
2022/12/04 05:57:28;;;;;;;17.38;11.70;;;;;;;5.81;74.92;95546.50;4163298;28;20068;-53
2022/12/04 05:59:31;;;;;;;19.10;11.98;;;;;;;5.84;74.58;95541.06;4162528;28;20099;-53
2022/12/04 06:01:32;;;;;;;17.33;11.63;;;;;;;5.86;74.97;95538.38;4155946;28;20083;-53
2022/12/04 06:03:34;;;;;;;16.25;11.65;;;;;;;5.86;74.31;95543.56;4157181;28;20301;-56
2022/12/04 06:05:36;;;;;;;17.35;10.77;;;;;;;5.85;74.81;95544.50;4159392;28;20124;-52
2022/12/04 06:07:37;;;;;;;18.13;12.45;;;;;;;5.86;74.47;95538.38;4158887;28;20115;-54
2022/12/04 06:09:39;;;;;;;18.15;11.18;;;;;;;5.83;74.43;95543.78;4165224;28;20111;-53
2022/12/04 06:11:41;;;;;;;19.05;12.30;;;;;;;5.87;74.45;95540.03;4161796;28;20201;-49
2022/12/04 06:13:44;;;;;;;19.40;12.00;;;;;;;5.91;74.32;95542.28;4156698;28;20172;-52
2022/12/04 06:15:46;;;;;;;18.45;11.93;;;;;;;5.95;74.33;95546.34;4158312;28;20137;-49
2022/12/04 06:17:48;;;;;;;18.55;12.07;;;;;;;5.98;74.16;95550.53;4155220;28;20050;-52
2022/12/04 06:19:51;;;;;;;16.42;11.77;;;;;;;6.00;74.27;95545.19;4157890;28;20546;-54
2022/12/04 06:21:54;;;;;;;18.27;11.35;;;;;;;6.04;74.04;95547.47;4161840;28;20049;-51
2022/12/04 06:23:56;;;;;;;22.30;12.70;;;;;;;6.03;73.92;95551.03;4157964;28;20509;-55
2022/12/04 06:26:02;;;;;;;18.98;12.85;;;;;;;6.05;73.65;95553.53;4155915;28;20561;-54
2022/12/04 06:28:07;;;;;;;20.15;13.00;;;;;;;6.05;73.81;95546.53;4150228;28;20056;-50
2022/12/04 06:30:09;;;;;;;26.77;12.48;;;;;;;6.08;74.25;95548.09;4158694;28;20053;-50
2022/12/04 06:32:11;;;;;;;20.08;12.35;;;;;;;6.13;74.54;95552.03;4155221;28;20053;-55
2022/12/04 06:34:21;;;;;;;20.67;12.48;;;;;;;6.16;74.27;95548.38;4161578;28;20140;-52
2022/12/04 06:36:23;;;;;;;18.90;12.25;;;;;;;6.20;73.75;95556.78;4163159;28;20053;-51
2022/12/04 06:38:25;;;;;;;20.45;14.52;;;;;;;6.28;73.99;95555.28;4157580;28;20115;-51
2022/12/04 06:40:27;;;;;;;23.52;16.70;;;;;;;6.33;73.79;95553.19;4159240;28;20176;-53
2022/12/04 06:42:28;;;;;;;28.20;21.80;;;;;;;6.36;73.20;95552.94;4159433;28;20052;-54
2022/12/04 06:44:30;;;;;;;28.02;20.92;;;;;;;6.40;73.25;95553.56;4154529;28;20533;-51
2022/12/04 06:46:33;;;;;;;23.33;18.60;;;;;;;6.42;73.82;95550.84;4156947;28;20060;-48
2022/12/04 06:48:36;;;;;;;19.77;15.57;;;;;;;6.48;73.79;95560.81;4148978;28;20406;-49
2022/12/04 06:50:38;;;;;;;26.10;16.88;;;;;;;6.51;73.87;95566.59;4147054;28;20092;-50
2022/12/04 06:52:39;;;;;;;21.33;13.55;;;;;;;6.52;73.78;95560.47;4146819;28;20108;-52
2022/12/04 06:54:41;;;;;;;22.75;16.00;;;;;;;6.57;73.81;95560.13;4147056;28;20084;-52
2022/12/04 06:56:43;;;;;;;24.13;14.40;;;;;;;6.62;74.15;95563.22;4147594;28;20411;-51
2022/12/04 06:58:49;;;;;;;23.63;16.13;;;;;;;6.68;73.75;95561.94;4148071;28;20046;-54
2022/12/04 07:00:51;;;;;;;22.38;15.85;;;;;;;6.79;73.67;95548.13;4155279;28;20053;-55
2022/12/04 07:02:53;;;;;;;18.83;14.07;;;;;;;6.88;73.42;95555.22;4148055;28;20058;-51
2022/12/04 07:04:55;;;;;;;16.92;12.00;;;;;;;6.94;72.58;95550.38;4148385;28;20073;-53
2022/12/04 07:06:57;;;;;;;15.23;10.73;;;;;;;7.03;72.68;95546.25;4152918;28;20606;-55
2022/12/04 07:09:11;;;;;;;13.82;9.73;;;;;;;7.09;72.55;95550.19;4154323;28;20090;-52
2022/12/04 07:11:13;;;;;;;13.27;9.67;;;;;;;7.14;72.78;95551.50;4151727;28;20119;-53
2022/12/04 07:13:15;;;;;;;14.68;9.60;;;;;;;7.23;72.42;95546.50;4147252;28;20046;-54
2022/12/04 07:15:16;;;;;;;13.82;9.18;;;;;;;7.31;72.74;95550.22;4154756;28;20049;-53
2022/12/04 07:17:19;;;;;;;11.23;6.95;;;;;;;7.38;72.20;95551.38;4151659;28;20094;-52
2022/12/04 07:19:21;;;;;;;11.38;7.00;;;;;;;7.47;72.19;95557.66;4150665;28;20052;-54
2022/12/04 07:21:25;;;;;;;10.10;6.72;;;;;;;7.59;71.47;95561.06;4148708;28;20552;-54
2022/12/04 07:23:27;;;;;;;12.50;6.15;;;;;;;7.68;71.23;95557.78;4148220;28;20100;-48
2022/12/04 07:25:30;;;;;;;12.85;7.25;;;;;;;7.74;71.18;95559.91;4146432;28;20058;-52
2022/12/04 07:27:31;;;;;;;8.57;5.63;;;;;;;7.61;70.57;95564.41;4147034;28;20053;-53
2022/12/04 07:29:33;;;;;;;9.57;5.80;;;;;;;7.56;70.73;95563.94;4152491;28;20177;-55
2022/12/04 07:31:35;;;;;;;9.25;6.35;;;;;;;7.54;71.02;95566.66;4152677;28;20558;-54
2022/12/04 07:33:37;;;;;;;8.40;5.60;;;;;;;7.50;70.84;95564.41;4159719;28;20639;-53
2022/12/04 07:35:39;;;;;;;9.70;6.60;;;;;;;7.41;70.80;95559.91;4150409;28;20053;-50
2022/12/04 07:37:40;;;;;;;10.68;6.47;;;;;;;7.17;71.65;95553.03;4155907;28;20075;-52
2022/12/04 07:39:42;;;;;;;9.65;6.20;;;;;;;7.12;71.85;95566.41;4147642;28;20455;-54
2022/12/04 07:41:44;;;;;;;13.10;6.38;;;;;;;7.15;71.80;95565.34;4157413;28;20469;-53
2022/12/04 07:43:46;;;;;;;8.27;5.93;;;;;;;7.21;72.44;95561.47;4144706;28;20050;-51
2022/12/04 07:45:47;;;;;;;10.88;6.75;;;;;;;7.26;71.81;95567.94;4145377;28;20061;-51
2022/12/04 07:47:49;;;;;;;8.77;6.03;;;;;;;7.19;72.21;95564.16;4145417;28;20077;-57
2022/12/04 07:49:51;;;;;;;9.85;6.40;;;;;;;7.26;71.91;95570.56;4146008;28;20134;-55
2022/12/04 07:51:53;;;;;;;12.23;6.85;;;;;;;7.32;71.90;95557.06;4159411;28;20068;-55
2022/12/04 07:53:58;;;;;;;9.73;6.00;;;;;;;7.35;71.77;95558.59;4152181;28;20449;-55
2022/12/04 07:56:05;;;;;;;9.23;6.10;;;;;;;7.31;71.47;95560.63;4162085;28;20057;-50
2022/12/04 07:58:07;;;;;;;9.13;5.88;;;;;;;7.21;71.50;95554.47;4148679;28;20049;-53
2022/12/04 08:00:10;;;;;;;11.45;6.95;;;;;;;7.24;71.73;95553.38;4158409;28;20108;-51
2022/12/04 08:02:12;;;;;;;8.43;5.72;;;;;;;7.05;71.91;95560.00;4145492;28;20068;-54
2022/12/04 08:04:14;;;;;;;9.30;6.18;;;;;;;7.09;72.64;95558.00;4145591;28;20114;-53
2022/12/04 08:06:18;;;;;;;10.15;6.10;;;;;;;7.11;72.68;95572.56;4145836;28;20046;-54
2022/12/04 08:08:19;;;;;;;11.65;6.75;;;;;;;7.18;72.28;95570.31;4145297;28;20057;-50
2022/12/04 08:10:21;;;;;;;10.55;6.30;;;;;;;7.16;72.43;95567.84;4145251;28;20444;-53
2022/12/04 08:12:23;;;;;;;9.80;6.55;;;;;;;7.23;72.01;95563.00;4145640;28;20045;-50
2022/12/04 08:14:24;;;;;;;9.45;6.22;;;;;;;7.23;72.35;95555.19;4144847;28;20054;-55
2022/12/04 08:16:28;;;;;;;12.68;6.80;;;;;;;7.32;71.79;95557.06;4160526;28;20053;-53
2022/12/04 08:18:30;;;;;;;12.18;6.18;;;;;;;7.31;71.55;95560.63;4151199;28;20432;-57
2022/12/04 08:20:32;;;;;;;9.13;5.13;;;;;;;7.38;71.20;95558.38;4146485;28;20112;-52
2022/12/04 08:22:33;;;;;;;10.52;5.95;;;;;;;7.35;71.08;95553.38;4145779;28;20240;-54
2022/12/04 08:24:35;;;;;;;9.43;5.78;;;;;;;7.37;72.01;95557.53;4147459;28;20127;-52
2022/12/04 08:26:37;;;;;;;9.82;6.50;;;;;;;7.46;72.24;95557.78;4154841;28;20104;-55
2022/12/04 08:28:40;;;;;;;7.93;5.25;;;;;;;7.47;71.12;95562.06;4145028;28;20481;-51
2022/12/04 08:30:41;;;;;;;9.77;5.18;;;;;;;7.46;71.32;95557.78;4145699;28;20481;-52
2022/12/04 08:32:43;;;;;;;10.85;5.75;;;;;;;7.50;71.63;95574.84;4145383;28;20045;-52
2022/12/04 08:34:45;;;;;;;7.88;5.45;;;;;;;7.51;70.88;95563.47;4145721;28;20046;-60
2022/12/04 08:36:52;;;;;;;6.68;4.75;;;;;;;7.53;70.04;95564.19;4150993;28;20054;-55
2022/12/04 08:38:55;;;;;;;7.45;4.72;;;;;;;7.58;70.59;95562.03;4157158;28;20132;-57
2022/12/04 08:41:01;;;;;;;8.75;5.22;;;;;;;7.48;70.57;95561.09;4149445;28;20057;-57
2022/12/04 08:43:03;;;;;;;8.13;4.88;;;;;;;7.43;70.64;95561.44;4151186;28;20084;-54
2022/12/04 08:45:06;;;;;;;10.10;4.93;;;;;;;7.42;70.93;95561.56;4156749;28;20075;-55
2022/12/04 08:47:08;;;;;;;9.65;5.13;;;;;;;7.59;70.58;95553.25;4159107;28;20132;-54
2022/12/04 08:49:10;;;;;;;7.70;4.93;;;;;;;7.69;70.19;95556.00;4160570;28;20050;-56
2022/12/04 08:51:21;;;;;;;10.48;4.53;;;;;;;7.73;68.96;95555.63;4170000;28;20136;-53
2022/12/04 08:53:23;;;;;;;8.23;4.88;;;;;;;7.81;69.48;95557.63;4161817;28;20049;-56
2022/12/04 08:55:26;;;;;;;9.40;4.95;;;;;;;7.89;68.87;95559.63;4160291;28;20177;-57
2022/12/04 08:57:27;;;;;;;17.80;4.88;;;;;;;7.98;68.59;95551.91;4159966;28;20060;-59
2022/12/04 08:59:29;;;;;;;8.98;5.00;;;;;;;8.11;68.61;95548.31;4159514;28;20082;-56
2022/12/04 09:01:31;;;;;;;8.57;5.32;;;;;;;8.09;68.28;95540.63;4160186;28;20054;-54
2022/12/04 09:03:35;;;;;;;7.90;5.73;;;;;;;8.06;68.28;95535.63;4146213;28;20049;-57
2022/12/04 09:05:37;;;;;;;9.32;4.88;;;;;;;8.10;68.14;95547.47;4144718;28;20050;-55
2022/12/04 09:07:39;;;;;;;8.25;4.70;;;;;;;8.10;67.83;95539.66;4153329;28;20058;-57
2022/12/04 09:09:41;;;;;;;7.93;4.97;;;;;;;8.15;68.36;95528.84;4160486;28;20049;-57
2022/12/04 09:11:48;;;;;;;7.70;4.80;;;;;;;8.17;68.09;95532.16;4151401;28;20053;-57
2022/12/04 09:13:50;;;;;;;9.77;5.22;;;;;;;8.16;68.00;95533.94;4160047;28;20548;-56
2022/12/04 09:15:52;;;;;;;10.10;5.05;;;;;;;8.17;67.74;95537.38;4160534;28;20135;-53
2022/12/04 09:17:55;;;;;;;10.50;5.32;;;;;;;8.27;67.77;95534.88;4159783;28;20276;-58
2022/12/04 09:19:57;;;;;;;10.35;5.85;;;;;;;8.36;68.08;95534.09;4147565;28;20053;-57
2022/12/04 09:22:02;;;;;;;36.03;18.25;;;;;;;8.45;68.07;95525.53;4160191;28;20377;-55
2022/12/04 09:24:06;;;;;;;20.55;10.32;;;;;;;8.55;67.64;95510.78;4159976;28;20180;-55
2022/12/04 09:26:26;;;;;;;10.60;5.80;;;;;;;8.63;66.61;95502.31;4159353;28;20056;-59
2022/12/04 09:28:28;;;;;;;6.60;3.88;;;;;;;8.58;65.68;95505.31;4159019;28;20118;-56
2022/12/04 09:30:30;;;;;;;5.60;3.45;;;;;;;8.48;64.95;95507.03;4158691;28;20085;-57
2022/12/04 09:32:32;;;;;;;13.52;6.72;;;;;;;8.57;66.03;95502.84;4159271;28;20068;-57
2022/12/04 09:34:34;;;;;;;8.07;4.88;;;;;;;8.66;66.42;95503.84;4147098;28;20137;-56
2022/12/04 09:36:36;;;;;;;8.32;4.25;;;;;;;8.65;65.52;95504.78;4159080;28;20049;-57
2022/12/04 09:38:38;;;;;;;5.75;3.72;;;;;;;8.60;64.43;95502.56;4159083;28;20049;-58
2022/12/04 09:40:58;;;;;;;3.70;2.55;;;;;;;8.49;64.12;95497.41;4157639;28;20057;-55
2022/12/04 09:43:11;;;;;;;3.80;2.72;;;;;;;8.51;64.40;95491.09;4150756;28;20152;-58
2022/12/04 09:45:18;;;;;;;4.68;2.40;;;;;;;8.60;64.69;95486.91;4143796;28;20053;-57
2022/12/04 09:47:35;;;;;;;4.90;3.33;;;;;;;8.65;64.76;95486.50;4162772;28;20044;-52
2022/12/04 09:49:47;;;;;;;7.07;3.83;;;;;;;8.72;65.07;95485.06;4142909;28;20466;-54
2022/12/04 09:51:51;;;;;;;7.75;4.10;;;;;;;8.77;64.52;95478.47;4158723;28;20115;-55
2022/12/04 09:54:01;;;;;;;6.15;3.67;;;;;;;8.85;64.85;95475.22;4160477;28;20195;-57
2022/12/04 09:56:05;;;;;;;4.97;3.28;;;;;;;8.88;64.34;95480.19;4149016;28;20089;-51
2022/12/04 09:58:12;;;;;;;5.53;3.75;;;;;;;8.94;64.26;95474.44;4154984;28;20812;-52